createdAt,value
2022-09-06T00:01:13.454Z,59.59
2022-09-06T00:03:43.427Z,60.03
2022-09-06T00:06:16.625Z,60.69
2022-09-06T00:08:47.398Z,60.74
2022-09-06T00:11:18.227Z,60.78
2022-09-06T00:13:48.386Z,61.68
2022-09-06T00:16:20.630Z,61.70
2022-09-06T00:18:53.556Z,62.23
2022-09-06T00:21:27.704Z,62.22
2022-09-06T00:23:57.112Z,62.56
2022-09-06T00:26:25.992Z,62.22
2022-09-06T00:28:54.499Z,62.80
2022-09-06T00:31:26.521Z,63.30
2022-09-06T00:33:56.642Z,63.11
2022-09-06T00:36:25.416Z,63.34
2022-09-06T00:38:53.936Z,63.42
2022-09-06T00:41:22.858Z,64.03
2022-09-06T00:43:51.378Z,63.81
2022-09-06T00:46:26.420Z,64.14
2022-09-06T00:49:04.039Z,64.05
2022-09-06T00:51:36.815Z,64.58
2022-09-06T00:54:09.135Z,64.72
2022-09-06T00:56:44.675Z,64.59
2022-09-06T00:59:14.046Z,64.58
2022-09-06T01:01:43.245Z,64.67
2022-09-06T01:04:14.472Z,64.99
2022-09-06T01:06:58.087Z,64.87
2022-09-06T01:09:47.657Z,64.48
2022-09-06T01:12:39.412Z,65.11
2022-09-06T01:15:27.259Z,65.71
2022-09-06T01:18:11.414Z,64.70
2022-09-06T01:20:58.356Z,65.28
2022-09-06T01:24:05.680Z,65.10
2022-09-06T01:27:16.134Z,65.43
2022-09-06T01:29:52.708Z,65.79
2022-09-06T01:32:33.359Z,65.11
2022-09-06T01:35:16.643Z,65.15
2022-09-06T01:37:45.507Z,65.79
2022-09-06T01:40:14.342Z,65.42
2022-09-06T01:42:46.270Z,66.09
2022-09-06T01:45:21.054Z,65.96
2022-09-06T01:48:10.527Z,65.86
2022-09-06T01:51:08.339Z,65.26
2022-09-06T01:54:00.848Z,65.69
2022-09-06T01:56:41.773Z,65.32
2022-09-06T01:59:37.076Z,65.11
2022-09-06T02:02:16.036Z,65.27
2022-09-06T02:04:50.556Z,65.79
2022-09-06T02:07:26.214Z,65.83
2022-09-06T02:10:00.194Z,65.69
2022-09-06T02:12:34.161Z,65.61
2022-09-06T02:15:09.263Z,65.74
2022-09-06T02:17:47.385Z,65.67
2022-09-06T02:20:24.126Z,65.33
2022-09-06T02:22:59.006Z,65.48
2022-09-06T02:25:35.975Z,65.72
2022-09-06T02:28:05.521Z,65.38
2022-09-06T02:30:39.463Z,66.07
2022-09-06T02:33:15.548Z,66.16
2022-09-06T02:35:47.034Z,66.21
2022-09-06T02:38:17.642Z,66.41
2022-09-06T02:40:48.233Z,66.82
2022-09-06T02:43:17.012Z,66.85
2022-09-06T02:45:45.629Z,67.31
2022-09-06T02:48:15.560Z,67.09
2022-09-06T02:50:44.367Z,67.13
2022-09-06T02:53:15.192Z,67.77
2022-09-06T02:55:44.424Z,67.80
2022-09-06T02:58:13.320Z,68.43
2022-09-06T03:00:42.511Z,67.88
2022-09-06T03:03:11.086Z,67.93
2022-09-06T03:05:41.172Z,67.66
2022-09-06T03:08:09.790Z,67.33
2022-09-06T03:10:38.834Z,66.74
2022-09-06T03:13:07.598Z,66.76
2022-09-06T03:15:36.133Z,67.10
2022-09-06T03:18:04.903Z,67.54
2022-09-06T03:20:36.986Z,67.62
2022-09-06T03:23:07.245Z,68.15
2022-09-06T03:25:36.070Z,67.58
2022-09-06T03:28:04.984Z,67.97
2022-09-06T03:30:33.633Z,68.59
2022-09-06T03:33:03.019Z,67.70
2022-09-06T03:35:31.707Z,68.33
2022-09-06T03:38:00.294Z,68.42
2022-09-06T03:40:30.549Z,68.03
2022-09-06T03:42:59.060Z,67.98
2022-09-06T03:45:27.641Z,67.64
2022-09-06T03:47:56.361Z,68.22
2022-09-06T03:50:24.922Z,68.27
2022-09-06T03:52:53.407Z,68.66
2022-09-06T03:55:22.159Z,68.15
2022-09-06T03:57:52.026Z,68.54
2022-09-06T04:00:20.761Z,68.24
2022-09-06T04:02:49.511Z,68.84
2022-09-06T04:05:19.174Z,68.86
2022-09-06T04:07:47.699Z,69.27
2022-09-06T04:10:16.676Z,68.58
2022-09-06T04:12:46.895Z,68.67
2022-09-06T04:15:17.079Z,67.47
2022-09-06T04:17:46.692Z,67.77
2022-09-06T04:20:16.654Z,67.86
2022-09-06T04:22:45.420Z,67.57
2022-09-06T04:25:14.565Z,67.39
2022-09-06T04:27:43.112Z,67.05
2022-09-06T04:30:12.529Z,67.32
2022-09-06T04:32:42.631Z,66.81
2022-09-06T04:35:11.146Z,66.69
2022-09-06T04:37:39.858Z,66.44
2022-09-06T04:40:09.653Z,67.15
2022-09-06T04:42:38.209Z,66.37
2022-09-06T04:45:08.509Z,66.96
2022-09-06T04:47:37.413Z,66.96
2022-09-06T04:50:08.790Z,66.30
2022-09-06T04:52:37.539Z,66.31
2022-09-06T04:55:07.539Z,66.08
2022-09-06T04:57:36.062Z,66.17
2022-09-06T05:00:05.961Z,66.40
2022-09-06T05:02:34.666Z,65.64
2022-09-06T05:05:05.065Z,65.87
2022-09-06T05:07:35.207Z,66.30
2022-09-06T05:10:04.385Z,66.07
2022-09-06T05:12:32.934Z,65.50
2022-09-06T05:15:01.669Z,66.20
2022-09-06T05:17:30.246Z,65.11
2022-09-06T05:19:58.838Z,65.97
2022-09-06T05:22:29.105Z,64.25
2022-09-06T05:24:59.030Z,64.90
2022-09-06T05:27:27.913Z,63.13
2022-09-06T05:29:56.675Z,62.75
2022-09-06T05:32:25.475Z,62.53
2022-09-06T05:34:53.988Z,61.63
2022-09-06T05:37:22.740Z,61.63
2022-09-06T05:39:51.419Z,60.03
2022-09-06T05:42:21.295Z,59.88
2022-09-06T05:44:50.007Z,61.04
2022-09-06T05:47:18.632Z,61.29
2022-09-06T05:49:47.367Z,57.88
2022-09-06T05:52:17.293Z,57.29
2022-09-06T05:54:45.807Z,58.39
2022-09-06T05:57:14.335Z,58.22
2022-09-06T05:59:44.415Z,57.23
2022-09-06T06:02:13.068Z,55.86
2022-09-06T06:04:41.757Z,54.75
2022-09-06T06:07:10.483Z,53.15
2022-09-06T06:09:39.174Z,53.28
2022-09-06T06:12:08.709Z,52.74
2022-09-06T06:14:37.492Z,53.04
2022-09-06T06:17:07.450Z,52.03
2022-09-06T06:19:36.622Z,51.93
2022-09-06T06:22:05.496Z,52.04
2022-09-06T06:24:34.180Z,50.77
2022-09-06T06:27:02.849Z,50.62
2022-09-06T06:29:31.576Z,50.58
2022-09-06T06:32:00.261Z,50.30
2022-09-06T06:34:30.274Z,49.36
2022-09-06T06:36:59.197Z,49.26
2022-09-06T06:39:27.782Z,48.47
2022-09-06T06:41:56.383Z,47.85
2022-09-06T06:44:39.227Z,46.81
2022-09-06T06:47:07.858Z,46.53
2022-09-06T06:49:37.762Z,45.55
2022-09-06T06:52:07.106Z,45.08
2022-09-06T06:54:37.414Z,44.49
2022-09-06T06:57:06.404Z,43.09
2022-09-06T06:59:35.223Z,42.61
2022-09-06T07:02:03.898Z,42.23
2022-09-06T07:04:32.477Z,42.10
2022-09-06T07:12:42.150Z,39.32
2022-09-06T07:15:11.352Z,38.33
2022-09-06T07:17:39.926Z,36.37
2022-09-06T07:22:45.384Z,35.35
2022-09-06T07:25:21.060Z,34.69
2022-09-06T07:27:50.535Z,34.72
2022-09-06T07:30:21.017Z,34.60
2022-09-06T07:32:50.072Z,32.91
2022-09-06T07:35:20.479Z,31.52
2022-09-06T07:37:56.387Z,30.92
2022-09-06T07:40:25.520Z,31.09
2022-09-06T07:42:54.561Z,30.13
2022-09-06T07:45:23.149Z,30.27
2022-09-06T07:50:48.842Z,30.75
2022-09-06T07:53:30.895Z,30.15
2022-09-06T07:56:01.753Z,30.31
2022-09-06T07:58:31.695Z,29.31
2022-09-06T08:01:26.633Z,29.84
2022-09-06T08:03:55.932Z,29.52
2022-09-06T08:06:25.805Z,29.85
2022-09-06T08:11:33.617Z,29.40
2022-09-06T08:14:05.331Z,28.47
2022-09-06T08:16:36.646Z,28.52
2022-09-06T08:19:08.910Z,28.61
2022-09-06T08:21:37.804Z,27.98
2022-09-06T08:24:11.236Z,26.74
2022-09-06T08:26:42.478Z,27.34
2022-09-06T08:29:12.435Z,27.13
2022-09-06T08:31:43.903Z,27.16
2022-09-06T08:34:14.270Z,26.90
2022-09-06T08:36:45.482Z,25.75
2022-09-06T08:39:16.803Z,26.75
2022-09-06T08:41:57.530Z,25.21
2022-09-06T08:47:23.270Z,25.69
2022-09-06T08:49:56.679Z,25.44
2022-09-06T08:53:15.785Z,25.68
2022-09-06T08:55:45.667Z,25.99
2022-09-06T08:58:41.642Z,25.12
2022-09-06T09:01:18.656Z,25.94
2022-09-06T09:03:48.257Z,24.42
2022-09-06T09:06:16.807Z,21.32
2022-09-06T09:08:53.857Z,25.48
2022-09-06T09:11:25.595Z,25.31
2022-09-06T09:14:00.680Z,24.14
2022-09-06T09:16:29.759Z,23.73
2022-09-06T09:19:02.899Z,24.25
2022-09-06T09:21:35.749Z,24.30
2022-09-06T09:24:09.530Z,24.67
2022-09-06T09:26:51.860Z,24.20
2022-09-06T09:29:25.328Z,24.21
2022-09-06T09:32:15.087Z,23.50
2022-09-06T09:34:43.727Z,23.58
2022-09-06T09:40:04.443Z,22.86
2022-09-06T09:42:37.580Z,23.96
2022-09-06T09:45:24.497Z,25.06
2022-09-06T09:47:53.420Z,23.81
2022-09-06T09:50:30.287Z,23.97
2022-09-06T09:53:11.186Z,22.95
2022-09-06T09:55:41.723Z,22.41
2022-09-06T09:58:25.205Z,22.43
2022-09-06T10:01:14.168Z,23.34
2022-09-06T10:09:23.710Z,21.41
2022-09-06T10:11:58.663Z,21.78
2022-09-06T10:14:32.323Z,21.57
2022-09-06T10:17:01.706Z,23.48
2022-09-06T10:19:41.974Z,22.95
2022-09-06T10:22:29.247Z,22.60
2022-09-06T10:25:36.729Z,23.53
2022-09-06T10:28:31.192Z,22.43
2022-09-06T10:31:45.606Z,22.55
2022-09-06T10:34:45.071Z,20.87
2022-09-06T10:37:37.537Z,22.96
2022-09-06T10:40:10.208Z,22.91
2022-09-06T10:42:47.835Z,24.35
2022-09-06T10:45:37.079Z,24.93
2022-09-06T10:48:16.924Z,24.14
2022-09-06T10:50:53.674Z,24.38
2022-09-06T10:53:40.553Z,24.54
2022-09-06T10:56:14.441Z,24.81
2022-09-06T11:01:59.126Z,24.00
2022-09-06T11:07:30.193Z,25.95
2022-09-06T11:10:06.117Z,25.57
2022-09-06T11:12:43.509Z,24.98
2022-09-06T11:15:15.925Z,24.00
2022-09-06T11:17:54.556Z,23.93
2022-09-06T11:20:34.367Z,24.09
2022-09-06T11:23:41.785Z,23.90
2022-09-06T11:26:34.592Z,23.84
2022-09-06T11:29:09.254Z,27.05
2022-09-06T11:34:55.896Z,26.92
2022-09-06T11:37:32.727Z,27.93
2022-09-06T11:40:32.128Z,27.94
2022-09-06T11:43:18.151Z,27.75
2022-09-06T11:45:51.011Z,27.74
2022-09-06T11:48:50.986Z,26.57
2022-09-06T11:51:37.867Z,25.84
2022-09-06T11:54:38.251Z,28.71
2022-09-06T11:57:17.755Z,29.49
2022-09-06T12:00:03.870Z,27.53
2022-09-06T12:02:38.228Z,27.76
2022-09-06T12:05:29.413Z,29.40
2022-09-06T12:08:38.202Z,30.04
2022-09-06T12:11:39.198Z,30.61
2022-09-06T12:14:20.721Z,30.19
2022-09-06T12:17:26.045Z,31.74
2022-09-06T12:20:05.473Z,28.98
2022-09-06T12:22:54.799Z,30.19
2022-09-06T12:25:56.976Z,29.44
2022-09-06T12:28:43.270Z,31.03
2022-09-06T12:31:30.382Z,30.47
2022-09-06T12:34:06.497Z,30.40
2022-09-06T12:36:35.860Z,30.49
2022-09-06T12:39:12.187Z,30.04
2022-09-06T12:41:44.775Z,29.93
2022-09-06T12:44:17.958Z,30.34
2022-09-06T12:46:50.803Z,29.99
2022-09-06T12:49:23.432Z,30.94
2022-09-06T12:51:52.157Z,29.87
2022-09-06T12:54:24.223Z,29.35
2022-09-06T12:56:54.400Z,26.90
2022-09-06T12:59:27.252Z,28.79
2022-09-06T13:02:05.065Z,29.12
2022-09-06T13:04:41.014Z,30.61
2022-09-06T13:07:17.181Z,30.56
2022-09-06T13:09:52.046Z,31.08
2022-09-06T13:12:29.776Z,31.54
2022-09-06T13:15:08.817Z,30.48
2022-09-06T13:17:38.921Z,30.76
2022-09-06T13:20:23.972Z,30.34
2022-09-06T13:22:54.356Z,31.39
2022-09-06T13:25:27.662Z,31.33
2022-09-06T13:28:01.608Z,31.04
2022-09-06T13:30:41.915Z,31.44
2022-09-06T13:33:26.979Z,31.77
2022-09-06T13:36:16.510Z,30.79
2022-09-06T13:38:46.984Z,29.00
2022-09-06T13:41:41.151Z,29.55
2022-09-06T13:44:28.508Z,29.67
2022-09-06T13:46:59.511Z,28.83
2022-09-06T13:49:32.055Z,30.20
2022-09-06T13:52:04.237Z,29.64
2022-09-06T13:54:35.586Z,29.62
2022-09-06T13:57:05.001Z,28.55
2022-09-06T13:59:33.672Z,29.16
2022-09-06T14:02:09.906Z,29.28
2022-09-06T14:04:39.000Z,29.66
2022-09-06T14:07:07.550Z,29.68
2022-09-06T14:09:37.514Z,29.59
2022-09-06T14:12:07.531Z,29.63
2022-09-06T14:14:36.514Z,29.22
2022-09-06T14:17:06.565Z,29.34
2022-09-06T14:19:35.334Z,29.31
2022-09-06T14:22:05.672Z,29.62
2022-09-06T14:24:34.720Z,29.79
2022-09-06T14:27:04.410Z,29.68
2022-09-06T14:29:33.161Z,29.48
2022-09-06T14:32:02.208Z,30.97
2022-09-06T14:34:32.760Z,29.86
2022-09-06T14:37:01.481Z,29.80
2022-09-06T14:39:30.265Z,30.21
2022-09-06T14:41:59.125Z,30.19
2022-09-06T14:44:27.653Z,30.22
2022-09-06T14:46:56.324Z,30.15
2022-09-06T14:49:25.382Z,30.66
2022-09-06T14:51:55.469Z,29.99
2022-09-06T14:54:28.972Z,30.25
2022-09-06T14:56:58.260Z,29.86
2022-09-06T14:59:26.880Z,29.71
2022-09-06T15:01:55.700Z,31.02
2022-09-06T15:04:26.370Z,30.07
2022-09-06T15:06:56.365Z,30.41
2022-09-06T15:09:25.212Z,30.51
2022-09-06T15:11:54.663Z,30.26
2022-09-06T15:14:25.498Z,30.78
2022-09-06T15:16:58.161Z,31.09
2022-09-06T15:19:28.998Z,30.68
2022-09-06T15:21:59.281Z,30.35
2022-09-06T15:24:28.678Z,30.75
2022-09-06T15:26:58.585Z,30.96
2022-09-06T15:29:27.931Z,30.95
2022-09-06T15:31:57.262Z,31.59
2022-09-06T15:34:27.677Z,30.73
2022-09-06T15:36:56.690Z,30.76
2022-09-06T15:39:26.925Z,31.69
2022-09-06T15:41:57.133Z,30.84
2022-09-06T15:44:26.456Z,31.97
2022-09-06T15:46:58.184Z,31.97
2022-09-06T15:49:30.922Z,32.75
2022-09-06T15:52:01.941Z,32.61
2022-09-06T15:54:57.850Z,32.60
2022-09-06T15:57:28.300Z,32.80
2022-09-06T15:59:56.954Z,33.15
2022-09-06T16:02:25.919Z,34.29
2022-09-06T16:04:54.853Z,35.10
2022-09-06T16:07:24.039Z,34.37
2022-09-06T16:09:54.062Z,34.11
2022-09-06T16:12:22.960Z,34.16
2022-09-06T16:14:52.140Z,33.03
2022-09-06T16:17:22.420Z,32.81
2022-09-06T16:19:51.193Z,32.93
2022-09-06T16:22:20.042Z,33.30
2022-09-06T16:24:48.752Z,34.21
2022-09-06T16:27:19.186Z,34.63
2022-09-06T16:29:48.028Z,36.02
2022-09-06T16:32:17.406Z,35.25
2022-09-06T16:34:46.867Z,36.89
2022-09-06T16:37:15.744Z,36.40
2022-09-06T16:39:44.463Z,38.20
2022-09-06T16:42:13.702Z,38.93
2022-09-06T16:44:43.796Z,40.07
2022-09-06T16:47:16.346Z,40.91
2022-09-06T16:49:45.549Z,41.06
2022-09-06T16:52:14.517Z,40.80
2022-09-06T16:54:43.094Z,41.89
2022-09-06T16:57:11.985Z,42.11
2022-09-06T16:59:40.734Z,42.73
2022-09-06T17:02:10.896Z,42.88
2022-09-06T17:04:39.894Z,43.69
2022-09-06T17:07:08.581Z,44.21
2022-09-06T17:09:37.305Z,44.16
2022-09-06T17:12:06.802Z,45.24
2022-09-06T17:14:36.320Z,44.36
2022-09-06T17:17:07.760Z,45.45
2022-09-06T17:19:41.528Z,45.95
2022-09-06T17:22:11.684Z,45.17
2022-09-06T17:24:41.904Z,45.86
2022-09-06T17:27:11.202Z,46.57
2022-09-06T17:29:40.161Z,46.86
2022-09-06T17:32:10.656Z,47.25
2022-09-06T17:34:42.031Z,48.28
2022-09-06T17:37:11.123Z,48.49
2022-09-06T17:39:40.416Z,48.36
2022-09-06T17:42:09.772Z,48.72
2022-09-06T17:44:38.805Z,48.84
2022-09-06T17:47:13.069Z,48.92
2022-09-06T17:49:44.330Z,48.81
2022-09-06T17:52:14.004Z,49.58
2022-09-06T17:54:42.970Z,49.55
2022-09-06T17:57:11.791Z,49.98
2022-09-06T17:59:40.672Z,50.42
2022-09-06T18:02:09.750Z,49.48
2022-09-06T18:04:38.617Z,49.55
2022-09-06T18:07:08.518Z,49.51
2022-09-06T18:09:37.841Z,49.95
2022-09-06T18:12:06.914Z,50.38
2022-09-06T18:14:35.779Z,51.37
2022-09-06T18:17:04.676Z,51.50
2022-09-06T18:19:33.248Z,52.42
2022-09-06T18:22:01.928Z,50.84
2022-09-06T18:24:32.244Z,49.54
2022-09-06T18:27:02.932Z,48.16
2022-09-06T18:29:32.641Z,47.80
2022-09-06T18:32:01.460Z,46.82
2022-09-06T18:34:30.365Z,47.33
2022-09-06T18:36:59.166Z,48.07
2022-09-06T18:39:28.016Z,48.99
2022-09-06T18:42:10.572Z,48.71
2022-09-06T18:44:40.691Z,49.61
2022-09-06T18:47:12.284Z,48.40
2022-09-06T18:49:44.367Z,48.86
2022-09-06T18:52:13.286Z,49.79
2022-09-06T18:54:43.663Z,50.15
2022-09-06T18:57:15.453Z,49.59
2022-09-06T18:59:45.581Z,49.79
2022-09-06T19:02:14.320Z,49.18
2022-09-06T19:04:42.916Z,49.54
2022-09-06T19:07:11.676Z,49.98
2022-09-06T19:09:41.647Z,50.19
2022-09-06T19:12:11.960Z,49.14
2022-09-06T19:14:42.153Z,49.39
2022-09-06T19:17:10.778Z,47.42
2022-09-06T19:19:39.389Z,48.13
2022-09-06T19:22:08.358Z,47.46
2022-09-06T19:24:39.252Z,47.13
2022-09-06T19:27:08.071Z,47.66
2022-09-06T19:29:37.045Z,48.04
2022-09-06T19:32:07.466Z,48.53
2022-09-06T19:34:36.214Z,47.68
2022-09-06T19:37:05.123Z,47.24
2022-09-06T19:39:37.154Z,47.95
2022-09-06T19:42:07.248Z,48.45
2022-09-06T19:44:36.090Z,48.81
2022-09-06T19:47:06.355Z,49.06
2022-09-06T19:49:35.326Z,48.88
2022-09-06T19:52:09.627Z,48.91
2022-09-06T19:54:38.481Z,49.09
2022-09-06T19:57:07.430Z,49.66
2022-09-06T19:59:36.977Z,50.04
2022-09-06T20:02:08.762Z,49.96
2022-09-06T20:04:37.441Z,50.61
2022-09-06T20:07:06.460Z,50.54
2022-09-06T20:09:35.547Z,50.13
2022-09-06T20:12:05.076Z,50.27
2022-09-06T20:14:33.820Z,50.47
2022-09-06T20:17:29.291Z,50.29
2022-09-06T20:19:53.878Z,51.35
2022-09-06T20:22:22.666Z,51.77
2022-09-06T20:24:51.264Z,52.02
2022-09-06T20:27:19.921Z,52.12
2022-09-06T20:29:48.946Z,52.37
2022-09-06T20:32:17.778Z,52.40
2022-09-06T20:34:46.417Z,52.71
2022-09-06T20:37:16.472Z,53.54
2022-09-06T20:39:45.086Z,54.42
2022-09-06T20:42:13.789Z,54.01
2022-09-06T20:44:42.583Z,54.83
2022-09-06T20:47:11.310Z,55.28
2022-09-06T20:49:39.926Z,56.00
2022-09-06T20:52:08.685Z,56.17
2022-09-06T20:54:38.599Z,56.35
2022-09-06T20:57:07.258Z,56.58
2022-09-06T20:59:35.994Z,57.25
2022-09-06T21:02:04.652Z,57.32
2022-09-06T21:04:33.318Z,57.21
2022-09-06T21:07:02.052Z,57.94
2022-09-06T21:09:31.102Z,58.15
2022-09-06T21:12:00.999Z,58.45
2022-09-06T21:14:30.716Z,59.35
2022-09-06T21:17:00.530Z,59.09
2022-09-06T21:19:30.357Z,58.25
2022-09-06T21:22:00.356Z,58.14
2022-09-06T21:24:29.893Z,58.30
2022-09-06T21:27:00.766Z,59.58
2022-09-06T21:29:30.950Z,60.03
2022-09-06T21:32:00.470Z,60.65
2022-09-06T21:34:30.150Z,60.74
2022-09-06T21:36:59.765Z,61.30
2022-09-06T21:39:29.292Z,62.28
2022-09-06T21:41:58.089Z,62.72
2022-09-06T21:44:28.162Z,63.44
2022-09-06T21:46:56.800Z,63.39
2022-09-06T21:49:25.382Z,62.88
2022-09-06T21:51:54.107Z,63.31
2022-09-06T21:54:23.790Z,63.10
2022-09-06T21:56:52.446Z,63.60
2022-09-06T21:59:21.463Z,64.10
2022-09-06T22:01:54.475Z,64.65
2022-09-06T22:04:23.817Z,64.47
2022-09-06T22:06:52.805Z,65.39
2022-09-06T22:09:22.080Z,64.58
2022-09-06T22:11:52.699Z,65.24
2022-09-06T22:14:21.773Z,66.35
2022-09-06T22:16:53.581Z,64.88
2022-09-06T22:19:22.785Z,65.30
2022-09-06T22:21:54.719Z,65.00
2022-09-06T22:24:23.942Z,65.28
2022-09-06T22:26:52.930Z,66.29
2022-09-06T22:29:22.461Z,66.56
2022-09-06T22:31:53.158Z,66.06
2022-09-06T22:34:22.350Z,65.62
2022-09-06T22:36:51.442Z,64.78
2022-09-06T22:39:20.694Z,65.14
2022-09-06T22:41:49.669Z,65.69
2022-09-06T22:44:20.118Z,66.01
2022-09-06T22:46:49.361Z,65.52
2022-09-06T22:49:19.943Z,65.48
2022-09-06T22:51:49.671Z,65.58
2022-09-06T22:54:18.850Z,65.76
2022-09-06T22:56:47.860Z,65.61
2022-09-06T22:59:16.937Z,65.95
2022-09-06T23:01:46.199Z,65.55
2022-09-06T23:04:15.294Z,65.96
2022-09-06T23:06:46.358Z,66.57
2022-09-06T23:09:15.732Z,66.02
2022-09-06T23:11:44.850Z,65.79
2022-09-06T23:14:14.284Z,66.80
2022-09-06T23:16:43.495Z,67.17
2022-09-06T23:19:12.477Z,66.62
2022-09-06T23:21:41.473Z,65.80
2022-09-06T23:24:12.341Z,67.56
2022-09-06T23:26:41.365Z,67.15
2022-09-06T23:29:10.361Z,66.83
2022-09-06T23:31:40.728Z,67.41
2022-09-06T23:34:09.953Z,67.17
2022-09-06T23:36:39.337Z,67.60
2022-09-06T23:39:08.936Z,68.22
2022-09-06T23:41:39.399Z,68.08
2022-09-06T23:44:08.526Z,68.12
2022-09-06T23:46:37.818Z,69.33
2022-09-06T23:49:07.139Z,68.41
2022-09-06T23:51:36.366Z,68.86
2022-09-06T23:54:05.781Z,68.52
2022-09-06T23:56:35.017Z,69.61
2022-09-06T23:59:05.381Z,69.30
